Time;durP1;ratioP1;P1;durP2;ratioP2;P2;SDS_P1;SDS_P2;PMS_P1;PMS_P2;Temp;Humidity;BMP_temperature;BMP_pressure;BME280_temperature;BME280_humidity;BME280_pressure;Samples;Min_cycle;Max_cycle;Signal;HPM_P1;HPM_P2
2022/08/28 00:00:51;;;;;;;4.93;3.70;;;;;;;16.79;68.16;102052.56;4999476;28;20034;-80
2022/08/28 00:03:16;;;;;;;8.32;4.45;;;;;;;16.77;68.41;102059.72;5017162;28;20134;-80
2022/08/28 00:05:42;;;;;;;6.40;4.00;;;;;;;16.75;68.38;102055.41;5015735;28;20352;-80
2022/08/28 00:08:10;;;;;;;5.75;3.20;;;;;;;16.73;68.32;102057.28;5029162;28;20072;-80
2022/08/28 00:10:38;;;;;;;5.63;3.30;;;;;;;16.70;68.50;102056.50;5002193;28;20039;-80
2022/08/28 00:13:04;;;;;;;5.38;3.72;;;;;;;16.69;68.67;102060.06;5019942;28;20099;-80
2022/08/28 00:15:35;;;;;;;5.22;3.15;;;;;;;16.67;68.36;102061.94;5002227;28;20312;-80
2022/08/28 00:18:02;;;;;;;6.38;3.30;;;;;;;16.63;68.50;102055.06;5018628;28;20029;-80
2022/08/28 00:20:29;;;;;;;4.88;2.72;;;;;;;16.63;68.62;102065.66;5035897;28;20037;-80
2022/08/28 00:22:56;;;;;;;4.57;2.63;;;;;;;16.61;68.59;102061.38;5036914;28;20072;-80
2022/08/28 00:25:24;;;;;;;3.83;3.22;;;;;;;16.59;68.69;102065.84;5018863;28;20045;-80
2022/08/28 00:27:51;;;;;;;6.38;3.13;;;;;;;16.56;68.68;102061.56;5018685;28;20037;-80
2022/08/28 00:30:35;;;;;;;3.90;2.78;;;;;;;16.55;68.68;102061.63;5036656;28;20076;-80
2022/08/28 00:33:05;;;;;;;6.60;2.80;;;;;;;16.51;68.76;102066.22;5036704;28;20029;-80
2022/08/28 00:35:32;;;;;;;5.32;2.95;;;;;;;16.48;68.74;102072.50;5036092;28;20088;-80
2022/08/28 00:37:58;;;;;;;3.42;2.70;;;;;;;16.46;68.79;102073.50;5036448;28;20068;-80
2022/08/28 00:40:27;;;;;;;7.28;3.53;;;;;;;16.43;68.87;102071.88;5018050;28;20048;-80
2022/08/28 00:42:53;;;;;;;4.28;3.42;;;;;;;16.40;69.01;102068.50;5036526;28;20072;-80
2022/08/28 00:45:20;;;;;;;5.32;3.03;;;;;;;16.37;68.71;102074.78;5018725;28;20429;-80
2022/08/28 00:47:46;;;;;;;7.50;3.10;;;;;;;16.35;68.74;102071.34;5017599;28;20233;-80
2022/08/28 00:50:18;;;;;;;4.10;3.38;;;;;;;16.33;68.70;102082.91;5036230;28;20112;-80
2022/08/28 00:52:48;;;;;;;5.03;3.30;;;;;;;16.28;69.09;102070.78;5017973;28;20071;-80
2022/08/28 00:55:21;;;;;;;5.68;3.50;;;;;;;16.26;68.72;102071.75;5036151;28;20064;-80
2022/08/28 00:57:51;;;;;;;7.70;3.63;;;;;;;16.24;68.99;102070.97;5035123;28;20396;-80
2022/08/28 01:02:42;;;;;;;7.03;3.90;;;;;;;16.19;69.22;102076.47;5028715;28;20128;-80
2022/08/28 01:05:09;;;;;;;4.20;3.58;;;;;;;16.16;68.92;102073.97;5018007;28;20143;-80
2022/08/28 01:07:36;;;;;;;5.00;3.95;;;;;;;16.14;69.05;102074.97;5036641;28;20034;-80
2022/08/28 01:10:04;;;;;;;5.78;4.05;;;;;;;16.11;68.95;102062.72;5035977;28;20378;-80
2022/08/28 01:12:32;;;;;;;7.00;3.75;;;;;;;16.08;69.32;102069.03;5035228;28;20087;-80
2022/08/28 01:15:00;;;;;;;9.70;3.50;;;;;;;16.06;69.22;102067.34;5018177;28;20021;-80
2022/08/28 01:17:32;;;;;;;3.60;3.30;;;;;;;16.04;69.28;102069.22;5035234;28;20597;-80
2022/08/28 01:20:04;;;;;;;6.25;3.67;;;;;;;16.02;69.05;102065.78;5034945;28;20232;-79
2022/08/28 01:22:42;;;;;;;6.30;3.47;;;;;;;15.99;69.30;102057.97;5035100;28;20037;-80
2022/08/28 01:25:15;;;;;;;5.75;3.95;;;;;;;15.96;69.46;102064.28;5017855;28;20140;-80
2022/08/28 01:27:41;;;;;;;4.57;3.33;;;;;;;15.95;69.50;102066.97;5035044;28;20392;-80
2022/08/28 01:30:13;;;;;;;6.05;3.58;;;;;;;15.92;69.42;102060.06;5035524;28;20048;-80
2022/08/28 01:32:42;;;;;;;5.40;3.72;;;;;;;15.89;69.69;102066.31;5034928;28;20241;-80
2022/08/28 01:35:12;;;;;;;4.78;3.58;;;;;;;15.87;69.45;102062.88;5035312;28;20216;-80
2022/08/28 01:37:38;;;;;;;4.25;3.50;;;;;;;15.85;69.78;102063.88;5016897;28;20068;-80
2022/08/28 01:40:06;;;;;;;5.88;3.65;;;;;;;15.84;69.64;102062.16;5017758;28;20324;-80
2022/08/28 01:42:38;;;;;;;6.77;3.50;;;;;;;15.81;69.86;102065.81;5034684;28;20053;-79
2022/08/28 01:45:04;;;;;;;15.27;4.20;;;;;;;15.79;69.98;102057.09;5017446;28;20048;-80
2022/08/28 01:47:29;;;;;;;5.88;3.70;;;;;;;15.78;70.00;102067.72;5034135;28;20228;-79
2022/08/28 01:49:55;;;;;;;6.63;3.60;;;;;;;15.75;70.07;102066.06;5001182;28;20040;-80
2022/08/28 01:52:20;;;;;;;4.65;3.15;;;;;;;15.74;69.73;102061.72;5034948;28;20064;-80
2022/08/28 01:54:46;;;;;;;5.07;3.30;;;;;;;15.72;70.17;102066.16;5035197;28;20056;-80
2022/08/28 01:57:11;;;;;;;5.85;2.83;;;;;;;15.72;70.13;102072.31;5034262;28;20057;-80
2022/08/28 01:59:36;;;;;;;4.13;2.65;;;;;;;15.71;70.41;102075.00;5017035;28;20398;-79
2022/08/28 02:02:02;;;;;;;4.63;3.17;;;;;;;15.70;70.15;102073.31;5035159;28;20374;-79
2022/08/28 02:04:28;;;;;;;5.68;3.20;;;;;;;15.67;70.16;102071.63;5016691;28;20037;-80
2022/08/28 02:06:54;;;;;;;3.78;3.03;;;;;;;15.66;70.46;102069.06;5000686;28;20112;-79
2022/08/28 02:09:19;;;;;;;4.82;3.17;;;;;;;15.64;70.22;102074.41;5016398;28;20037;-80
2022/08/28 02:11:44;;;;;;;4.32;2.90;;;;;;;15.62;70.25;102078.88;5016676;28;20037;-80
2022/08/28 02:14:10;;;;;;;5.45;2.88;;;;;;;15.60;70.42;102080.75;5000534;28;20266;-80
2022/08/28 02:16:35;;;;;;;3.20;2.83;;;;;;;15.60;70.37;102078.09;5034554;28;20056;-79
2022/08/28 02:19:01;;;;;;;3.28;2.85;;;;;;;15.58;70.56;102076.47;5016664;28;20036;-80
2022/08/28 02:21:27;;;;;;;3.30;3.00;;;;;;;15.55;70.36;102083.59;5016524;28;20040;-79
2022/08/28 02:23:52;;;;;;;3.85;3.30;;;;;;;15.53;70.38;102079.28;5034902;28;20088;-79
2022/08/28 02:26:18;;;;;;;6.22;3.65;;;;;;;15.51;70.50;102079.34;5034314;28;20103;-80
2022/08/28 02:28:44;;;;;;;4.57;2.63;;;;;;;15.50;70.72;102079.44;5034311;28;20041;-80
2022/08/28 02:31:10;;;;;;;7.25;3.30;;;;;;;15.47;70.52;102080.41;5037306;28;20371;-80
2022/08/28 02:33:42;;;;;;;5.97;3.25;;;;;;;15.48;70.70;102081.25;5040948;28;20041;-80
2022/08/28 02:36:08;;;;;;;4.55;3.03;;;;;;;15.45;70.62;102078.75;5040847;28;20079;-79
2022/08/28 02:38:35;;;;;;;4.47;3.17;;;;;;;15.43;70.87;102080.59;5040761;28;20290;-79
2022/08/28 02:41:00;;;;;;;4.68;2.90;;;;;;;15.41;70.67;102079.78;4989898;28;20326;-79
2022/08/28 02:43:26;;;;;;;3.38;2.85;;;;;;;15.40;70.82;102081.56;5023270;28;20094;-80
2022/08/28 02:45:51;;;;;;;2.80;2.60;;;;;;;15.39;70.75;102084.25;5039774;28;20291;-80
2022/08/28 02:48:17;;;;;;;3.65;2.67;;;;;;;15.38;70.87;102085.22;5003027;28;20033;-80
2022/08/28 02:50:45;;;;;;;4.25;2.67;;;;;;;15.36;70.90;102086.13;5023456;28;20053;-80
2022/08/28 02:53:10;;;;;;;4.10;2.47;;;;;;;15.36;70.48;102086.13;5022881;28;20061;-79
2022/08/28 02:55:36;;;;;;;4.47;2.30;;;;;;;15.36;70.33;102087.91;5040902;28;20099;-80
2022/08/28 02:58:02;;;;;;;4.57;2.10;;;;;;;15.37;70.49;102084.31;5040777;28;20307;-80
2022/08/28 03:00:27;;;;;;;3.45;2.63;;;;;;;15.36;70.73;102082.63;5040286;28;20045;-80
2022/08/28 03:02:53;;;;;;;3.13;2.30;;;;;;;15.36;70.80;102094.03;5023087;28;20053;-80
2022/08/28 03:05:22;;;;;;;4.43;2.05;;;;;;;15.35;70.68;102094.97;5040412;28;20033;-80
2022/08/28 03:07:48;;;;;;;2.88;2.13;;;;;;;15.34;70.74;102097.66;5022678;28;20029;-80
2022/08/28 03:10:14;;;;;;;3.30;2.13;;;;;;;15.33;70.94;102093.31;5023047;28;20047;-80
2022/08/28 03:12:39;;;;;;;4.18;2.33;;;;;;;15.32;70.95;102088.97;5040399;28;20342;-80
2022/08/28 03:15:06;;;;;;;3.13;2.08;;;;;;;15.30;71.09;102089.03;5040869;28;20029;-80
2022/08/28 03:17:32;;;;;;;5.55;2.17;;;;;;;15.30;71.34;102093.44;5039909;28;20033;-80
2022/08/28 03:19:57;;;;;;;2.65;1.80;;;;;;;15.27;71.14;102085.66;5022872;28;20381;-80
2022/08/28 03:23:24;;;;;;;3.53;1.95;;;;;;;15.25;71.18;102090.97;5022320;28;20292;-80
2022/08/28 03:25:10;;;;;;;6.03;2.25;;;;;;;15.24;71.31;102091.03;5005884;28;20041;-80
2022/08/28 03:27:36;;;;;;;3.08;2.22;;;;;;;15.24;71.15;102091.03;5028272;28;20048;-80
2022/08/28 03:30:03;;;;;;;3.10;2.03;;;;;;;15.22;71.32;102087.59;5022925;28;20037;-80
2022/08/28 03:32:30;;;;;;;2.72;2.13;;;;;;;15.19;71.21;102088.59;5040104;28;20040;-80
2022/08/28 03:34:56;;;;;;;2.92;2.22;;;;;;;15.18;71.22;102094.78;5006505;28;20037;-80
2022/08/28 03:37:21;;;;;;;5.30;2.25;;;;;;;15.16;71.50;102089.56;5040320;28;20064;-80
2022/08/28 03:39:46;;;;;;;3.50;1.90;;;;;;;15.15;71.32;102082.59;5022728;28;20041;-80
2022/08/28 03:42:12;;;;;;;2.80;1.88;;;;;;;15.13;71.62;102097.63;4988302;28;20061;-80
2022/08/28 03:44:38;;;;;;;4.70;2.30;;;;;;;15.11;71.72;102099.44;5036945;28;20089;-80
2022/08/28 03:47:04;;;;;;;2.90;2.08;;;;;;;15.09;71.63;102106.56;5037109;28;20225;-80
2022/08/28 03:49:30;;;;;;;5.68;2.55;;;;;;;15.08;71.56;102101.34;5036104;28;20268;-80
2022/08/28 03:51:56;;;;;;;4.88;2.78;;;;;;;15.06;71.48;102103.19;5037230;28;20109;-80
2022/08/28 03:54:21;;;;;;;3.50;2.00;;;;;;;15.04;71.71;102100.59;5019453;28;20033;-80
2022/08/28 03:56:47;;;;;;;2.38;1.90;;;;;;;15.03;71.32;102106.81;5002438;28;20033;-80
2022/08/28 03:59:12;;;;;;;3.78;2.38;;;;;;;15.01;71.57;102108.66;5019273;28;20099;-80
2022/08/28 04:01:38;;;;;;;2.63;2.05;;;;;;;15.00;71.56;102112.19;5018763;28;20175;-80
2022/08/28 04:04:03;;;;;;;2.67;1.98;;;;;;;14.99;71.76;102110.50;4993014;28;20026;-80
2022/08/28 04:06:29;;;;;;;3.45;2.33;;;;;;;14.98;71.82;102112.25;5035240;28;20279;-80
2022/08/28 04:08:54;;;;;;;3.22;2.42;;;;;;;14.96;71.86;102113.25;5018968;28;20030;-80
2022/08/28 04:11:20;;;;;;;5.55;2.55;;;;;;;14.96;71.93;102110.59;5019080;28;20086;-80
2022/08/28 04:13:46;;;;;;;6.07;2.35;;;;;;;14.94;71.94;102107.16;5018758;28;20064;-80
2022/08/28 04:16:15;;;;;;;3.30;2.00;;;;;;;14.92;72.08;102111.66;5018945;28;20037;-80
2022/08/28 04:18:41;;;;;;;4.13;2.22;;;;;;;14.92;71.85;102112.50;5018403;28;20029;-80
2022/08/28 04:21:13;;;;;;;2.47;2.28;;;;;;;14.91;71.86;102107.28;5002597;28;20030;-80
2022/08/28 04:23:42;;;;;;;2.85;2.17;;;;;;;14.91;71.94;102115.19;5018591;28;20316;-80
2022/08/28 04:26:07;;;;;;;;;;;;;;;14.89;71.78;102117.03;5037283;28;20030;-80
2022/08/28 04:28:34;;;;;;;2.13;2.00;;;;;;;14.88;71.72;102121.47;5001645;28;19967;-80
2022/08/28 04:30:59;;;;;;;2.88;2.15;;;;;;;14.86;72.16;102119.78;5034170;28;20101;-80
2022/08/28 04:33:26;;;;;;;4.35;2.28;;;;;;;14.86;71.95;102119.78;5014607;28;20337;-80
2022/08/28 04:35:52;;;;;;;3.72;2.53;;;;;;;14.84;71.95;102116.34;4997433;28;20040;-80
2022/08/28 04:38:18;;;;;;;3.63;2.40;;;;;;;14.83;72.26;102117.28;5032298;28;20069;-80
2022/08/28 04:40:43;;;;;;;2.53;2.30;;;;;;;14.81;72.00;102119.09;5034447;28;20075;-80
2022/08/28 04:43:09;;;;;;;2.38;2.05;;;;;;;14.81;72.28;102117.34;4999144;28;20321;-80
2022/08/28 04:45:42;;;;;;;3.67;2.10;;;;;;;14.80;72.26;102127.94;5034439;28;20226;-80
2022/08/28 04:48:09;;;;;;;3.55;2.35;;;;;;;14.80;72.39;102127.94;5016649;28;20495;-80
2022/08/28 04:50:39;;;;;;;4.07;2.30;;;;;;;14.78;72.06;102125.34;5034199;28;20032;-80
2022/08/28 04:53:05;;;;;;;3.38;2.10;;;;;;;14.77;72.39;102123.63;5016976;28;20247;-80
2022/08/28 04:55:30;;;;;;;3.92;2.25;;;;;;;14.77;72.24;102123.63;5014984;28;20049;-80
2022/08/28 04:57:56;;;;;;;2.20;2.00;;;;;;;14.75;72.14;102126.34;5033836;28;20053;-80
2022/08/28 05:00:22;;;;;;;2.92;2.10;;;;;;;14.75;72.32;102126.34;5034286;28;20077;-80
2022/08/28 05:02:48;;;;;;;2.90;1.95;;;;;;;14.75;72.16;102134.25;5016827;28;20045;-80
2022/08/28 05:05:13;;;;;;;5.35;2.60;;;;;;;14.74;72.27;102135.16;5034203;28;20355;-80
2022/08/28 05:07:39;;;;;;;3.45;2.10;;;;;;;14.74;72.08;102135.16;5033151;28;20045;-80
2022/08/28 05:10:06;;;;;;;3.28;2.40;;;;;;;14.75;72.34;102141.28;4999953;28;20040;-80
2022/08/28 05:12:34;;;;;;;2.35;2.17;;;;;;;14.74;72.41;102140.44;5034107;28;20110;-80
2022/08/28 05:14:59;;;;;;;2.03;1.85;;;;;;;14.74;72.26;102142.22;5034505;28;20041;-80
2022/08/28 05:17:25;;;;;;;3.25;2.40;;;;;;;14.74;72.52;102144.84;4998826;28;20319;-80
2022/08/28 05:19:51;;;;;;;1.90;1.63;;;;;;;14.73;72.26;102143.13;5033849;28;20132;-80
2022/08/28 05:22:16;;;;;;;2.13;1.75;;;;;;;14.73;72.08;102143.97;5016100;28;20037;-80
2022/08/28 05:24:42;;;;;;;2.92;2.10;;;;;;;14.73;72.32;102146.59;5034207;28;20260;-80
2022/08/28 05:27:08;;;;;;;3.22;2.40;;;;;;;14.73;72.22;102149.25;5015665;28;20037;-80
2022/08/28 05:29:33;;;;;;;2.85;1.80;;;;;;;14.74;72.13;102155.41;5015088;28;20033;-80
2022/08/28 05:31:58;;;;;;;3.47;2.28;;;;;;;14.73;72.25;102151.88;5015975;28;20040;-80
2022/08/28 05:34:24;;;;;;;2.55;2.25;;;;;;;14.74;72.34;102143.06;5015772;28;20048;-80
2022/08/28 05:36:49;;;;;;;2.05;1.95;;;;;;;14.75;72.58;102151.84;5015791;28;20396;-80
2022/08/28 05:39:15;;;;;;;4.15;2.28;;;;;;;14.75;72.38;102154.47;5015848;28;20048;-80
2022/08/28 05:41:43;;;;;;;2.15;1.95;;;;;;;14.77;72.90;102160.53;5032864;28;20243;-80
2022/08/28 05:44:11;;;;;;;3.00;2.28;;;;;;;14.78;72.58;102162.28;5033744;28;20344;-80
2022/08/28 05:46:39;;;;;;;3.47;2.25;;;;;;;14.78;72.78;102157.00;5032753;28;20041;-80
2022/08/28 05:49:06;;;;;;;3.47;2.63;;;;;;;14.79;73.16;102161.38;5014769;28;20336;-80
2022/08/28 05:51:33;;;;;;;6.40;2.92;;;;;;;14.82;73.40;102155.09;5032809;28;20083;-80
2022/08/28 05:53:58;;;;;;;2.88;2.50;;;;;;;14.82;73.70;102158.59;5016094;28;20104;-80
2022/08/28 05:56:33;;;;;;;2.85;2.50;;;;;;;14.84;74.28;102155.91;5014648;28;20033;-80
2022/08/28 05:59:00;;;;;;;2.88;2.30;;;;;;;14.85;74.63;102158.50;5032412;28;20099;-80
2022/08/28 06:01:31;;;;;;;2.97;2.50;;;;;;;14.87;74.84;102158.44;5012949;28;20029;-80
2022/08/28 06:04:07;;;;;;;2.65;2.45;;;;;;;14.88;74.99;102161.03;5018155;28;20121;-80
2022/08/28 06:06:34;;;;;;;4.25;2.80;;;;;;;14.88;75.50;102161.03;5032345;28;20041;-80
2022/08/28 06:09:04;;;;;;;2.75;2.30;;;;;;;14.88;76.27;102157.50;5026364;28;20041;-80
2022/08/28 06:11:29;;;;;;;2.47;2.28;;;;;;;14.89;76.31;102165.34;5041567;28;20041;-80
2022/08/28 06:13:56;;;;;;;3.47;2.30;;;;;;;14.91;76.44;102163.53;5033787;28;20340;-80
2022/08/28 06:16:22;;;;;;;3.20;2.00;;;;;;;14.93;76.42;102152.91;5039333;28;20041;-80
2022/08/28 06:18:47;;;;;;;3.47;2.20;;;;;;;14.93;76.33;102164.31;4981982;28;20101;-80
2022/08/28 06:21:13;;;;;;;3.90;2.03;;;;;;;14.96;77.08;102168.63;5013018;28;20101;-80
2022/08/28 06:23:39;;;;;;;2.50;1.77;;;;;;;14.95;77.36;102165.16;5033062;28;20045;-80
2022/08/28 06:26:05;;;;;;;2.55;1.75;;;;;;;14.97;77.59;102173.84;5016050;28;20033;-80
2022/08/28 06:28:31;;;;;;;3.83;1.70;;;;;;;15.00;77.47;102166.75;5012204;28;20041;-80
2022/08/28 06:31:00;;;;;;;2.28;1.58;;;;;;;15.01;77.74;102171.97;5021880;28;20033;-80
2022/08/28 06:33:25;;;;;;;;;;;;;;;15.02;78.36;102181.59;5005564;28;20218;-80
2022/08/28 06:35:53;;;;;;;3.80;1.73;;;;;;;15.03;78.21;102178.03;5009300;28;19924;-80
2022/08/28 06:38:21;;;;;;;3.83;1.92;;;;;;;15.06;78.65;102182.31;5025416;28;20033;-80
2022/08/28 06:40:48;;;;;;;6.33;2.20;;;;;;;15.05;79.69;102186.75;5005872;28;20113;-80
2022/08/28 06:43:15;;;;;;;4.95;2.35;;;;;;;15.08;79.08;102184.00;5014920;28;20373;-80
2022/08/28 06:45:47;;;;;;;6.05;2.10;;;;;;;15.10;79.22;102184.81;5030555;28;20129;-80
2022/08/28 06:48:15;;;;;;;6.13;2.58;;;;;;;15.12;79.36;102190.88;5032450;28;20342;-80
2022/08/28 06:50:44;;;;;;;4.57;1.80;;;;;;;15.14;79.63;102186.41;4995674;28;20348;-80
2022/08/28 06:53:11;;;;;;;5.30;1.90;;;;;;;15.18;79.51;102183.66;5031201;28;20041;-80
2022/08/28 06:55:37;;;;;;;5.60;2.08;;;;;;;15.19;79.58;102186.22;5031207;28;20322;-80
2022/08/28 06:58:04;;;;;;;4.25;1.73;;;;;;;15.20;79.80;102193.22;5024304;28;20073;-80
2022/08/28 07:00:31;;;;;;;10.38;2.13;;;;;;;15.22;79.58;102185.25;5013219;28;20061;-80
2022/08/28 07:02:58;;;;;;;4.47;1.80;;;;;;;15.22;79.49;102183.44;4997866;28;20048;-80
2022/08/28 07:05:23;;;;;;;5.55;1.92;;;;;;;15.26;79.19;102185.06;5031514;28;20063;-80
2022/08/28 07:07:49;;;;;;;6.72;2.38;;;;;;;15.29;79.57;102192.00;5027755;28;20268;-80
2022/08/28 07:10:15;;;;;;;3.90;1.90;;;;;;;15.33;79.43;102194.47;5014063;28;20133;-80
2022/08/28 07:12:40;;;;;;;4.47;1.85;;;;;;;15.35;79.56;102191.75;5030863;28;20328;-80
2022/08/28 07:15:06;;;;;;;9.05;2.03;;;;;;;15.39;79.36;102193.38;4999212;28;20041;-80
2022/08/28 07:17:32;;;;;;;4.35;1.90;;;;;;;15.43;79.51;102196.75;5025952;28;20053;-80
2022/08/28 07:19:57;;;;;;;3.22;1.60;;;;;;;15.47;79.22;102201.84;5017087;28;20313;-80
2022/08/28 07:22:25;;;;;;;2.15;1.40;;;;;;;15.51;79.09;102199.94;5017617;28;20159;-80
2022/08/28 07:24:52;;;;;;;5.63;1.75;;;;;;;15.51;79.33;102202.56;5017750;28;20268;-80
2022/08/28 07:27:17;;;;;;;3.38;1.80;;;;;;;15.55;79.42;102207.69;5017900;28;20025;-80
2022/08/28 07:29:43;;;;;;;7.30;1.60;;;;;;;15.57;79.51;102214.66;5000763;28;20044;-80
2022/08/28 07:32:08;;;;;;;6.28;1.98;;;;;;;15.63;79.27;102217.09;5001078;28;20059;-80
2022/08/28 07:34:37;;;;;;;4.78;1.98;;;;;;;15.66;78.56;102214.28;5001144;28;20037;-81
2022/08/28 07:37:05;;;;;;;7.40;2.13;;;;;;;15.70;78.62;102227.34;5017972;28;20056;-80
2022/08/28 07:39:31;;;;;;;4.90;1.95;;;;;;;15.72;78.44;102219.34;5035205;28;20029;-80
2022/08/28 07:41:57;;;;;;;5.35;2.08;;;;;;;15.71;78.16;102229.03;5028768;28;20291;-80
2022/08/28 07:47:30;;;;;;;4.82;1.70;;;;;;;15.75;77.96;102224.53;4981600;28;20242;-80
2022/08/28 07:49:58;;;;;;;3.63;2.00;;;;;;;15.78;78.61;102220.91;4993519;28;20034;-80
2022/08/28 07:52:24;;;;;;;6.72;1.92;;;;;;;15.80;78.86;102233.13;5013924;28;20626;-80
2022/08/28 07:54:50;;;;;;;3.50;1.67;;;;;;;15.81;78.73;102226.94;5017158;28;20041;-80
2022/08/28 07:57:16;;;;;;;9.20;1.70;;;;;;;15.85;78.76;102222.38;5000200;28;20135;-80
2022/08/28 08:00:00;;;;;;;6.38;1.67;;;;;;;15.86;78.76;102219.69;5034398;28;20072;-80
2022/08/28 08:02:26;;;;;;;3.88;1.65;;;;;;;15.92;78.70;102232.63;4998084;28;20041;-80
2022/08/28 08:04:52;;;;;;;12.10;2.83;;;;;;;15.98;78.71;102242.09;5017293;28;20041;-80
2022/08/28 08:07:18;;;;;;;4.13;1.70;;;;;;;15.99;77.86;102235.88;5016539;28;20233;-80
2022/08/28 08:09:45;;;;;;;7.18;1.92;;;;;;;16.03;78.66;102240.13;5016843;28;20033;-80
2022/08/28 08:12:13;;;;;;;3.28;1.70;;;;;;;16.06;78.53;102236.47;5034831;28;20264;-80
2022/08/28 08:14:40;;;;;;;3.38;1.55;;;;;;;16.10;77.57;102246.03;5034932;28;20087;-80
2022/08/28 08:17:06;;;;;;;3.08;1.45;;;;;;;16.14;77.40;102242.31;5017179;28;20060;-80
2022/08/28 08:19:32;;;;;;;4.30;1.63;;;;;;;16.18;76.29;102243.03;4999948;28;20462;-80
2022/08/28 08:21:57;;;;;;;4.72;1.60;;;;;;;16.22;75.58;102248.13;5034938;28;20037;-80
2022/08/28 08:24:24;;;;;;;5.00;1.60;;;;;;;16.31;75.21;102246.88;5016387;28;20325;-80
2022/08/28 08:26:53;;;;;;;3.78;1.63;;;;;;;16.36;75.01;102250.19;5034719;28;20030;-80
2022/08/28 08:29:19;;;;;;;2.85;1.40;;;;;;;16.40;75.01;102257.06;5034090;28;20047;-80
2022/08/28 08:31:46;;;;;;;4.47;1.50;;;;;;;16.43;74.26;102243.72;5032226;28;20036;-80
2022/08/28 08:34:11;;;;;;;8.90;1.65;;;;;;;16.46;73.63;102250.66;5022654;28;20103;-80
2022/08/28 08:36:37;;;;;;;3.80;1.35;;;;;;;16.49;73.80;102242.59;5029256;28;20053;-80
2022/08/28 08:39:05;;;;;;;7.78;1.55;;;;;;;16.55;73.76;102242.31;5034818;28;20236;-80
2022/08/28 08:41:46;;;;;;;3.75;1.23;;;;;;;16.60;73.42;102245.63;5024105;28;20360;-80
2022/08/28 08:44:35;;;;;;;2.90;1.35;;;;;;;16.63;73.34;102248.16;5016871;28;20033;-80
2022/08/28 08:47:08;;;;;;;9.25;1.88;;;;;;;16.69;72.34;102247.00;5034761;28;20037;-80
2022/08/28 08:49:40;;;;;;;4.32;1.20;;;;;;;16.75;72.11;102246.72;5034074;28;20034;-80
2022/08/28 08:52:12;;;;;;;6.03;1.40;;;;;;;16.87;72.24;102248.88;5034353;28;20332;-80
2022/08/28 08:55:00;;;;;;;5.57;1.50;;;;;;;16.94;72.02;102238.88;5015617;28;20098;-80
2022/08/28 08:57:26;;;;;;;6.35;1.73;;;;;;;17.01;72.14;102237.66;5033367;28;20420;-80
2022/08/28 08:59:52;;;;;;;4.22;1.33;;;;;;;17.14;71.49;102237.97;5016290;28;20321;-80
2022/08/28 09:02:23;;;;;;;3.28;1.48;;;;;;;17.18;71.47;102233.38;5016167;28;20044;-80
2022/08/28 09:05:23;;;;;;;4.68;1.20;;;;;;;17.24;70.01;102243.69;5034069;28;20041;-80
2022/08/28 09:07:55;;;;;;;3.28;1.33;;;;;;;17.27;69.82;102248.84;5012502;28;21888;-80
2022/08/28 09:10:22;;;;;;;4.32;1.45;;;;;;;17.35;69.16;102245.81;5015965;28;20037;-80
2022/08/28 09:13:02;;;;;;;2.33;1.13;;;;;;;17.46;68.70;102240.88;5033622;28;20041;-80
2022/08/28 09:15:39;;;;;;;4.80;0.93;;;;;;;17.57;68.71;102238.59;5033535;28;20095;-80
2022/08/28 09:18:24;;;;;;;2.97;1.13;;;;;;;17.69;67.36;102242.44;5033721;28;20033;-80
2022/08/28 09:20:55;;;;;;;1.83;1.17;;;;;;;17.77;66.99;102240.28;5033721;28;20175;-80
2022/08/28 09:23:22;;;;;;;2.70;1.15;;;;;;;17.78;66.66;102241.97;5033465;28;20204;-80
2022/08/28 09:26:08;;;;;;;1.38;0.93;;;;;;;17.79;66.76;102243.72;4999491;28;20108;-80
2022/08/28 09:28:40;;;;;;;4.78;1.10;;;;;;;17.91;66.11;102238.78;5033199;28;20038;-80
2022/08/28 09:31:14;;;;;;;5.22;1.40;;;;;;;17.89;66.27;102233.53;5033229;28;20033;-80
2022/08/28 09:33:44;;;;;;;4.60;1.13;;;;;;;17.91;65.56;102236.13;5032992;28;20262;-80
2022/08/28 09:36:32;;;;;;;2.75;1.00;;;;;;;17.94;65.95;102242.13;5033187;28;20320;-80
2022/08/28 09:39:09;;;;;;;2.40;1.08;;;;;;;17.98;66.45;102235.72;5022483;28;20480;-80
2022/08/28 09:44:28;;;;;;;4.07;1.23;;;;;;;18.19;65.34;102231.16;5033188;28;20365;-80
2022/08/28 09:46:54;;;;;;;6.22;1.45;;;;;;;18.21;65.56;102233.75;5015458;28;20044;-80
2022/08/28 09:49:26;;;;;;;2.65;1.30;;;;;;;18.21;66.15;102234.59;5015559;28;20208;-80
2022/08/28 09:51:53;;;;;;;2.72;1.08;;;;;;;18.30;65.98;102237.69;5015193;28;20033;-80
2022/08/28 09:54:41;;;;;;;2.22;1.30;;;;;;;18.31;65.44;102231.47;5015309;28;20041;-80
2022/08/28 09:57:06;;;;;;;5.63;1.10;;;;;;;18.36;64.40;102240.91;5032597;28;20055;-80
2022/08/28 09:59:32;;;;;;;3.00;1.27;;;;;;;18.37;64.22;102228.47;5015140;28;20018;-80
2022/08/28 10:02:25;;;;;;;3.15;1.17;;;;;;;18.40;64.30;102225.69;5033521;28;20041;-80
2022/08/28 10:04:59;;;;;;;5.38;1.10;;;;;;;18.44;64.19;102229.03;5015142;28;20178;-80
2022/08/28 10:07:44;;;;;;;6.47;1.40;;;;;;;18.45;64.01;102226.31;5031951;28;20037;-80
2022/08/28 10:10:29;;;;;;;6.22;1.20;;;;;;;18.47;64.12;102232.38;5015349;28;20033;-80
2022/08/28 10:13:18;;;;;;;8.88;1.67;;;;;;;18.50;64.00;102231.34;5033078;28;20021;-80
2022/08/28 10:15:57;;;;;;;5.65;1.20;;;;;;;18.46;64.66;102225.34;5006210;28;20406;-80
2022/08/28 10:18:42;;;;;;;2.97;1.30;;;;;;;18.44;64.36;102221.91;4996521;28;20041;-81
2022/08/28 10:21:15;;;;;;;4.43;1.30;;;;;;;18.59;63.97;102228.22;5025943;28;20228;-80
2022/08/28 10:23:53;;;;;;;2.97;1.25;;;;;;;18.69;63.63;102233.91;5027814;28;20056;-80
2022/08/28 10:26:28;;;;;;;5.93;1.70;;;;;;;18.70;63.27;102227.66;5027287;28;20041;-80
2022/08/28 10:29:13;;;;;;;6.07;1.17;;;;;;;18.72;63.10;102231.97;5027402;28;20331;-81
2022/08/28 10:32:09;;;;;;;2.60;1.30;;;;;;;18.73;63.13;102225.69;5007234;28;20038;-80
2022/08/28 10:34:45;;;;;;;3.03;1.10;;;;;;;18.77;62.47;102232.56;5004946;28;20064;-80
2022/08/28 10:37:29;;;;;;;5.13;1.20;;;;;;;18.79;62.75;102224.50;5027388;28;20245;-80
2022/08/28 10:40:04;;;;;;;4.10;1.27;;;;;;;18.79;62.05;102229.81;5030250;28;20045;-81
2022/08/28 10:42:33;;;;;;;4.38;1.27;;;;;;;18.78;62.01;102226.31;5005990;28;20313;-80
2022/08/28 10:45:09;;;;;;;2.08;1.25;;;;;;;18.83;61.72;102233.19;5009215;28;20398;-80
2022/08/28 10:47:38;;;;;;;3.20;1.17;;;;;;;18.86;62.48;102227.72;5010665;28;20045;-80
2022/08/28 10:50:11;;;;;;;3.10;1.10;;;;;;;18.88;62.82;102233.81;5027002;28;20087;-80
2022/08/28 10:52:46;;;;;;;3.85;1.55;;;;;;;18.88;62.15;102234.69;5025023;28;20083;-80
2022/08/28 10:55:25;;;;;;;3.20;1.33;;;;;;;18.86;62.41;102227.72;5028052;28;20036;-81
2022/08/28 10:57:56;;;;;;;1.83;1.55;;;;;;;18.85;61.83;102245.47;5012519;28;20064;-81
2022/08/28 11:00:25;;;;;;;5.55;1.27;;;;;;;18.83;61.49;102243.81;5027008;28;20374;-81
2022/08/28 11:02:55;;;;;;;3.65;1.05;;;;;;;18.77;61.48;102240.53;5012022;28;20060;-80
2022/08/28 11:05:23;;;;;;;4.88;1.08;;;;;;;18.76;62.14;102246.78;5028922;28;20038;-80
2022/08/28 11:07:54;;;;;;;4.22;1.58;;;;;;;18.77;62.22;102243.19;5028783;28;20527;-80
2022/08/28 11:10:28;;;;;;;4.82;1.50;;;;;;;18.85;62.59;102244.63;5012922;28;20267;-81
2022/08/28 11:12:54;;;;;;;3.33;1.15;;;;;;;18.88;62.46;102236.47;5013147;28;20516;-80
2022/08/28 11:15:25;;;;;;;3.60;1.02;;;;;;;18.92;62.07;102246.00;5017543;28;20057;-81
2022/08/28 11:17:52;;;;;;;3.72;1.30;;;;;;;19.01;61.92;102255.25;5035426;28;20045;-80
2022/08/28 11:20:23;;;;;;;3.08;1.08;;;;;;;19.01;61.70;102244.63;5035322;28;20048;-80
2022/08/28 11:23:19;;;;;;;5.90;1.50;;;;;;;18.96;62.07;102244.88;5017857;28;20241;-81
2022/08/28 11:25:58;;;;;;;3.17;1.38;;;;;;;18.90;61.59;102248.72;5019457;28;20506;-81
2022/08/28 11:28:23;;;;;;;4.50;1.40;;;;;;;18.86;61.98;102238.34;5034910;28;20065;-81
2022/08/28 11:31:08;;;;;;;3.25;1.27;;;;;;;18.81;61.97;102241.28;5035371;28;20064;-81
2022/08/28 11:33:51;;;;;;;2.08;1.00;;;;;;;18.80;61.83;102243.00;5032050;28;20332;-81
2022/08/28 11:36:17;;;;;;;2.95;1.35;;;;;;;18.82;62.14;102236.81;5035201;28;20226;-80
2022/08/28 11:38:42;;;;;;;3.60;1.13;;;;;;;18.86;61.75;102241.84;5021601;28;20025;-81
2022/08/28 11:41:23;;;;;;;4.67;1.33;;;;;;;18.93;61.32;102235.28;5009468;28;20103;-81
2022/08/28 11:44:08;;;;;;;3.20;1.10;;;;;;;19.00;60.34;102238.47;5025587;28;20290;-81